Aeroporto :
LOGIN :

Iscrizione | Disclaimer

   EN    FR    IT 

 










Sommario :    VFR   VFR Marginale   IFR   IFR Intensivo   IFR Molto Intensivo
Visibilità : 
Base nubi : 
>= 8 km
>= 3000ft
5 / 8 km
1000 / 3000 ft
1500m / 5 km
500 / 1000 ft
800 / 1500m
200 / 500 ft
< 800m
< 200 ft
Simboli :   Temporali  Nebbia  Neve Forte  Precipitazioni Forti  Vento > 20 kt
SIGMETs :   Varie  Temporali  Ghiacco  Turbolenza  Onda orograficha  Ceneri Vulcaniche






- Altitudine del aeroporto : 1161 ft
- Codice IATA : RJL


LELO - Logroño-Agoncillo

ULTIMO METAR :
  • 270000Z AUTO 27004KT CAVOK 16/12 Q1027

METARs OBSOLETI :
  • 262330Z AUTO VRB02KT CAVOK 16/10 Q1027
  • 262300Z AUTO 28003KT 240V340 CAVOK 16/11 Q1027
  • 262230Z AUTO 32004KT 270V010 CAVOK 18/10 Q1027
  • 262200Z AUTO 26003KT CAVOK 16/11 Q1027
  • 262130Z AUTO 27003KT 250V320 CAVOK 17/11 Q1027

TAF TAF LELO
Valido dal 26 a 18 ore il 27 a 03 ore UTC


261700Z 2618/2703 VRB05KT 9999 FEW050



MetMap, La meteo Aeronautica in un colpo d'occhio ! - Copyright ORBIFLY Dicembre 2007 - Disclaimer

ORBIFLY MET'MAP TEAM :

Programmazione e sviluppo : Alexandra Zaïnal
Concezione : Baudouin d'Aumeries
Aiuto per la programmazione : Marc-Olivier Méhu
Supporto tecnico e logistico : Manuel Goepfert
Aiuto per la traduzione : Arnaldo La Scala

Contatto : metmap@orbifly.com




FONTI E CREDITI :

   NOAA